createdAt,value
2022-08-16T00:01:11.824Z,97044.31
2022-08-16T00:03:38.876Z,97046.44
2022-08-16T00:06:08.142Z,97044.38
2022-08-16T00:08:37.799Z,97049.16
2022-08-16T00:11:15.158Z,97052.63
2022-08-16T00:13:43.170Z,97047.66
2022-08-16T00:17:05.551Z,97037.97
2022-08-16T00:19:06.458Z,97042.09
2022-08-16T00:21:33.940Z,97033.72
2022-08-16T00:24:04.799Z,97036.50
2022-08-16T00:26:36.160Z,97039.00
2022-08-16T00:29:05.667Z,97045.16
2022-08-16T00:31:58.857Z,97044.28
2022-08-16T00:34:44.781Z,97043.59
2022-08-16T00:37:11.634Z,97049.09
2022-08-16T00:39:38.988Z,97046.19
2022-08-16T00:42:10.118Z,97038.88
2022-08-16T00:44:39.511Z,97041.53
2022-08-16T00:47:16.353Z,97037.34
2022-08-16T00:49:44.439Z,97037.22
2022-08-16T00:52:30.201Z,97045.41
2022-08-16T00:54:59.350Z,97048.13
2022-08-16T00:57:58.302Z,97051.53
2022-08-16T01:00:19.866Z,97066.06
2022-08-16T01:02:48.954Z,97070.97
2022-08-16T01:05:16.211Z,97063.38
2022-08-16T01:07:52.007Z,97072.97
2022-08-16T01:10:31.326Z,97073.03
2022-08-16T01:13:04.527Z,97072.72
2022-08-16T01:15:33.923Z,97079.00
2022-08-16T01:18:02.965Z,97082.16
2022-08-16T01:20:33.947Z,97085.50
2022-08-16T01:23:17.837Z,97083.91
2022-08-16T01:25:59.851Z,97084.72
2022-08-16T01:28:30.622Z,97081.84
2022-08-16T01:30:59.795Z,97088.84
2022-08-16T01:33:33.303Z,97092.38
2022-08-16T01:36:11.812Z,97098.59
2022-08-16T01:38:49.003Z,97104.00
2022-08-16T01:41:22.814Z,97112.91
2022-08-16T01:43:53.755Z,97106.56
2022-08-16T01:46:40.014Z,97110.19
2022-08-16T01:49:43.668Z,97108.28
2022-08-16T01:52:28.187Z,97104.19
2022-08-16T01:54:58.263Z,97103.50
2022-08-16T01:57:27.802Z,97099.94
2022-08-16T01:59:58.484Z,97104.75
2022-08-16T02:02:27.288Z,97108.97
2022-08-16T02:04:55.342Z,97092.94
2022-08-16T02:07:23.746Z,97097.66
2022-08-16T02:09:58.892Z,97094.31
2022-08-16T02:12:50.044Z,97091.53
2022-08-16T02:15:25.469Z,97090.13
2022-08-16T02:17:53.253Z,97083.88
2022-08-16T02:20:26.388Z,97079.59
2022-08-16T02:22:55.322Z,97076.69
2022-08-16T02:25:22.751Z,97077.38
2022-08-16T02:27:51.488Z,97073.81
2022-08-16T02:30:37.553Z,97080.03
2022-08-16T02:33:10.295Z,97081.44
2022-08-16T02:35:54.093Z,97089.63
2022-08-16T02:38:24.978Z,97090.91
2022-08-16T02:40:54.417Z,97077.59
2022-08-16T02:43:26.654Z,97090.09
2022-08-16T02:45:54.200Z,97091.38
2022-08-16T02:48:29.502Z,97093.44
2022-08-16T02:51:10.691Z,97087.97
2022-08-16T02:53:47.505Z,97080.94
2022-08-16T02:56:17.920Z,97078.16
2022-08-16T02:58:50.659Z,97080.78
2022-08-16T03:01:33.745Z,97084.50
2022-08-16T03:04:41.132Z,97088.19
2022-08-16T03:06:55.271Z,97087.00
2022-08-16T03:09:24.332Z,97093.81
2022-08-16T03:11:51.011Z,97091.13
2022-08-16T03:14:21.405Z,97093.81
2022-08-16T03:16:59.212Z,97096.09
2022-08-16T03:19:47.431Z,97089.47
2022-08-16T03:22:18.985Z,97092.25
2022-08-16T03:24:54.783Z,97090.81
2022-08-16T03:27:25.138Z,97079.72
2022-08-16T03:29:57.831Z,97085.34
2022-08-16T03:32:24.480Z,97086.84
2022-08-16T03:34:52.927Z,97086.06
2022-08-16T03:37:19.657Z,97072.19
2022-08-16T03:39:47.029Z,97079.56
2022-08-16T03:42:20.502Z,97080.28
2022-08-16T03:44:50.004Z,97080.00
2022-08-16T03:47:19.115Z,97068.06
2022-08-16T03:49:51.410Z,97077.59
2022-08-16T03:52:20.589Z,97081.91
2022-08-16T03:54:57.452Z,97079.22
2022-08-16T03:57:31.762Z,97083.84
2022-08-16T04:00:35.555Z,97086.53
2022-08-16T04:03:08.802Z,97080.41
2022-08-16T04:05:48.457Z,97079.63
2022-08-16T04:08:23.051Z,97077.50
2022-08-16T04:10:51.817Z,97074.16
2022-08-16T04:13:20.238Z,97071.38
2022-08-16T04:16:06.563Z,97067.13
2022-08-16T04:18:36.818Z,97064.84
2022-08-16T04:21:04.018Z,97064.19
2022-08-16T04:23:30.680Z,97066.97
2022-08-16T04:25:57.377Z,97068.00
2022-08-16T04:28:54.357Z,97073.41
2022-08-16T04:31:15.642Z,97077.28
2022-08-16T04:33:50.873Z,97076.66
2022-08-16T04:36:20.212Z,97075.16
2022-08-16T04:38:47.270Z,97082.75
2022-08-16T04:41:17.499Z,97082.09
2022-08-16T04:43:44.731Z,97081.16
2022-08-16T04:47:00.130Z,97084.75
2022-08-16T04:49:03.899Z,97091.13
2022-08-16T04:51:36.066Z,97085.81
2022-08-16T04:54:06.081Z,97087.56
2022-08-16T04:56:33.371Z,97084.78
2022-08-16T04:59:00.734Z,97082.84
2022-08-16T05:01:57.758Z,97082.28
2022-08-16T05:04:19.240Z,97088.69
2022-08-16T05:06:46.599Z,97087.63
2022-08-16T05:09:14.517Z,97105.75
2022-08-16T05:11:43.275Z,97107.69
2022-08-16T05:14:10.159Z,97109.03
2022-08-16T05:16:36.870Z,97113.75
2022-08-16T05:19:04.950Z,97118.16
2022-08-16T05:21:36.020Z,97116.94
2022-08-16T05:24:07.137Z,97124.84
2022-08-16T05:26:37.553Z,97119.66
2022-08-16T05:29:10.817Z,97127.84
2022-08-16T05:31:44.189Z,97118.94
2022-08-16T05:34:19.950Z,97115.59
2022-08-16T05:36:51.154Z,97119.31
2022-08-16T05:39:18.812Z,97116.75
2022-08-16T05:41:47.755Z,97125.19
2022-08-16T05:44:22.904Z,97123.22
2022-08-16T05:47:00.318Z,97118.41
2022-08-16T05:49:38.901Z,97114.44
2022-08-16T05:52:11.375Z,97122.94
2022-08-16T05:54:45.950Z,97120.25
2022-08-16T05:57:14.552Z,97123.72
2022-08-16T05:59:41.870Z,97122.69
2022-08-16T06:02:08.614Z,97117.38
2022-08-16T06:04:37.539Z,97133.47
2022-08-16T06:07:08.164Z,97134.94
2022-08-16T06:09:37.155Z,97136.72
2022-08-16T06:12:10.976Z,97135.56
2022-08-16T06:14:40.107Z,97146.31
2022-08-16T06:17:07.610Z,97145.19
2022-08-16T06:19:35.796Z,97147.53
2022-08-16T06:22:03.253Z,97144.16
2022-08-16T06:24:53.815Z,97152.81
2022-08-16T06:27:17.144Z,97146.59
2022-08-16T06:29:44.702Z,97142.38
2022-08-16T06:32:27.369Z,97147.38
2022-08-16T06:35:02.834Z,97148.06
2022-08-16T06:37:36.974Z,97147.72
2022-08-16T06:40:05.628Z,97149.41
2022-08-16T06:42:47.907Z,97160.53
2022-08-16T06:45:15.705Z,97156.00
2022-08-16T06:47:53.396Z,97153.34
2022-08-16T06:50:31.533Z,97157.13
2022-08-16T06:53:06.837Z,97149.69
2022-08-16T06:55:38.289Z,97154.28
2022-08-16T06:58:08.095Z,97152.47
2022-08-16T07:00:37.637Z,97149.31
2022-08-16T07:03:26.809Z,97159.72
2022-08-16T07:05:53.926Z,97151.66
2022-08-16T07:08:21.063Z,97149.16
2022-08-16T07:10:47.838Z,97154.06
2022-08-16T07:13:23.052Z,97157.13
2022-08-16T07:16:02.709Z,97152.34
2022-08-16T07:18:29.579Z,97158.13
2022-08-16T07:21:01.711Z,97164.88
2022-08-16T07:23:37.204Z,97169.09
2022-08-16T07:26:08.498Z,97164.94
2022-08-16T07:28:35.563Z,97160.09
2022-08-16T07:31:03.309Z,97163.63
2022-08-16T07:33:53.801Z,97160.19
2022-08-16T07:36:22.837Z,97163.97
2022-08-16T07:38:49.976Z,97165.44
2022-08-16T07:41:17.458Z,97165.00
2022-08-16T07:43:46.268Z,97166.97
2022-08-16T07:46:38.752Z,97164.19
2022-08-16T07:49:03.720Z,97169.81
2022-08-16T07:51:35.581Z,97167.75
2022-08-16T07:54:09.630Z,97165.94
2022-08-16T07:56:38.093Z,97168.81
2022-08-16T07:59:05.775Z,97160.47
2022-08-16T08:01:33.571Z,97170.41
2022-08-16T08:04:04.441Z,97179.19
2022-08-16T08:10:29.657Z,97178.47
2022-08-16T08:12:59.369Z,97179.06
2022-08-16T08:19:20.981Z,97181.06
2022-08-16T08:21:58.952Z,97186.41
2022-08-16T08:24:32.343Z,97195.03
2022-08-16T08:27:04.303Z,97193.38
2022-08-16T08:29:37.450Z,97192.88
2022-08-16T08:32:58.624Z,97195.03
2022-08-16T08:34:52.563Z,97187.50
2022-08-16T08:37:20.095Z,97191.91
2022-08-16T08:39:55.299Z,97188.22
2022-08-16T08:42:26.781Z,97195.25
2022-08-16T08:44:54.716Z,97196.81
2022-08-16T08:47:21.410Z,97201.03
2022-08-16T08:49:55.188Z,97198.81
2022-08-16T08:52:35.369Z,97193.03
2022-08-16T08:55:09.237Z,97190.78
2022-08-16T08:57:38.084Z,97188.97
2022-08-16T09:00:07.896Z,97182.16
2022-08-16T09:02:42.741Z,97191.31
2022-08-16T09:05:15.442Z,97185.91
2022-08-16T09:08:00.539Z,97171.31
2022-08-16T09:10:30.598Z,97181.44
2022-08-16T09:12:58.864Z,97182.16
2022-08-16T09:19:16.523Z,97180.88
2022-08-16T09:21:59.482Z,97173.09
2022-08-16T09:24:51.474Z,97177.09
2022-08-16T09:27:13.224Z,97175.41
2022-08-16T09:29:45.349Z,97169.41
2022-08-16T09:32:12.870Z,97174.09
2022-08-16T09:34:58.281Z,97169.38
2022-08-16T09:37:29.577Z,97172.31
2022-08-16T09:40:01.051Z,97169.69
2022-08-16T09:42:29.391Z,97164.97
2022-08-16T09:45:11.823Z,97167.91
2022-08-16T09:47:57.038Z,97165.97
2022-08-16T09:50:36.830Z,97167.59
2022-08-16T09:53:15.408Z,97157.34
2022-08-16T09:55:49.442Z,97157.44
2022-08-16T09:58:40.673Z,97144.19
2022-08-16T10:01:08.738Z,97146.53
2022-08-16T10:03:38.399Z,97156.63
2022-08-16T10:06:26.250Z,97151.03
2022-08-16T10:09:05.999Z,97144.59
2022-08-16T10:11:54.014Z,97145.34
2022-08-16T10:14:24.987Z,97145.66
2022-08-16T10:17:02.704Z,97148.41
2022-08-16T10:19:29.517Z,97137.13
2022-08-16T10:21:58.989Z,97142.75
2022-08-16T10:24:28.316Z,97134.22
2022-08-16T10:27:16.668Z,97138.44
2022-08-16T10:30:00.360Z,97149.84
2022-08-16T10:32:30.546Z,97147.09
2022-08-16T10:34:58.554Z,97147.19
2022-08-16T10:37:32.751Z,97148.19
2022-08-16T10:40:29.632Z,97145.50
2022-08-16T10:42:56.253Z,97142.19
2022-08-16T10:45:23.124Z,97141.66
2022-08-16T10:48:00.552Z,97143.75
2022-08-16T10:50:32.499Z,97138.91
2022-08-16T10:53:00.102Z,97138.19
2022-08-16T10:55:40.913Z,97136.03
2022-08-16T10:58:13.708Z,97131.16
2022-08-16T11:00:45.989Z,97133.16
2022-08-16T11:06:03.222Z,97132.34
2022-08-16T11:08:36.428Z,97128.28
2022-08-16T11:11:13.005Z,97124.41
2022-08-16T11:14:10.681Z,97118.34
2022-08-16T11:19:22.798Z,97119.09
2022-08-16T11:24:42.251Z,97114.22
2022-08-16T11:27:23.463Z,97105.22
2022-08-16T11:29:53.371Z,97104.69
2022-08-16T11:32:31.366Z,97109.00
2022-08-16T11:35:13.556Z,97099.13
2022-08-16T11:40:56.799Z,97104.69
2022-08-16T11:43:28.935Z,97101.19
2022-08-16T11:45:57.831Z,97097.72
2022-08-16T11:48:33.373Z,97093.69
2022-08-16T11:51:01.683Z,97094.50
2022-08-16T11:53:29.680Z,97101.59
2022-08-16T11:56:03.436Z,97091.13
2022-08-16T11:58:34.010Z,97089.84
2022-08-16T12:01:00.855Z,97094.78
2022-08-16T12:03:35.429Z,97098.34
2022-08-16T12:06:10.994Z,97101.78
2022-08-16T12:08:57.443Z,97093.28
2022-08-16T12:11:28.153Z,97089.72
2022-08-16T12:13:59.303Z,97089.16
2022-08-16T12:16:31.181Z,97089.88
2022-08-16T12:19:00.982Z,97085.03
2022-08-16T12:21:57.543Z,97091.38
2022-08-16T12:24:14.838Z,97087.19
2022-08-16T12:26:42.656Z,97090.75
2022-08-16T12:29:10.566Z,97090.78
2022-08-16T12:31:37.298Z,97090.78
2022-08-16T12:34:28.841Z,97092.03
2022-08-16T12:36:56.023Z,97080.91
2022-08-16T12:39:23.098Z,97094.25
2022-08-16T12:41:49.953Z,97083.72
2022-08-16T12:44:19.877Z,97085.22
2022-08-16T12:47:08.237Z,97079.66
2022-08-16T12:49:41.910Z,97079.72
2022-08-16T12:52:09.072Z,97083.25
2022-08-16T12:54:37.446Z,97077.63
2022-08-16T12:57:14.002Z,97079.66
2022-08-16T12:59:42.059Z,97069.13
2022-08-16T13:02:12.576Z,97068.28
2022-08-16T13:04:49.902Z,97070.47
2022-08-16T13:07:18.142Z,97062.88
2022-08-16T13:09:58.336Z,97061.50
2022-08-16T13:12:28.439Z,97063.72
2022-08-16T13:14:55.934Z,97060.19
2022-08-16T13:17:26.502Z,97057.41
2022-08-16T13:20:12.593Z,97060.28
2022-08-16T13:22:49.957Z,97054.69
2022-08-16T13:25:21.437Z,97058.19
2022-08-16T13:28:03.100Z,97054.69
2022-08-16T13:30:41.767Z,97047.66
2022-08-16T13:33:16.923Z,97051.88
2022-08-16T13:35:55.898Z,97056.19
2022-08-16T13:38:26.058Z,97056.84
2022-08-16T13:40:57.322Z,97058.91
2022-08-16T13:43:26.399Z,97056.09
2022-08-16T13:45:54.082Z,97053.28
2022-08-16T13:48:25.346Z,97046.97
2022-08-16T13:51:02.469Z,97054.00
2022-08-16T13:53:31.024Z,97046.34
2022-08-16T13:55:59.573Z,97038.66
2022-08-16T13:58:36.716Z,97037.97
2022-08-16T14:01:09.804Z,97040.75
2022-08-16T14:03:40.998Z,97035.78
2022-08-16T14:06:10.566Z,97030.88
2022-08-16T14:08:42.005Z,97030.19
2022-08-16T14:11:11.740Z,97027.41
2022-08-16T14:13:39.662Z,97031.63
2022-08-16T14:16:12.643Z,97032.31
2022-08-16T14:18:52.662Z,97023.19
2022-08-16T14:21:23.576Z,97023.19
2022-08-16T14:23:52.290Z,97024.63
2022-08-16T14:26:21.218Z,97022.59
2022-08-16T14:28:50.400Z,97020.50
2022-08-16T14:31:18.401Z,97014.88
2022-08-16T14:33:45.534Z,97009.19
2022-08-16T14:36:12.316Z,97004.22
2022-08-16T14:38:45.560Z,96998.59
2022-08-16T14:41:13.711Z,97004.22
2022-08-16T14:43:40.623Z,97002.81
2022-08-16T14:46:07.751Z,97000.75
2022-08-16T14:48:34.816Z,96993.75
2022-08-16T14:51:01.893Z,96993.09
2022-08-16T14:53:28.808Z,96988.88
2022-08-16T14:55:58.518Z,96995.22
2022-08-16T14:58:34.995Z,96987.50
2022-08-16T15:01:06.121Z,96981.19
2022-08-16T15:03:37.382Z,96984.69
2022-08-16T15:06:04.934Z,96983.31
2022-08-16T15:08:34.157Z,96983.31
2022-08-16T15:11:05.309Z,96984.00
2022-08-16T15:13:32.529Z,96983.31
2022-08-16T15:16:02.753Z,96979.75
2022-08-16T15:18:31.561Z,96978.34
2022-08-16T15:20:59.752Z,96980.44
2022-08-16T15:23:28.400Z,96977.63
2022-08-16T15:26:03.651Z,96977.66
2022-08-16T15:28:32.780Z,96981.88
2022-08-16T15:31:06.077Z,96986.03
2022-08-16T15:33:43.335Z,96986.69
2022-08-16T15:36:18.325Z,96988.78
2022-08-16T15:38:56.189Z,96985.28
2022-08-16T15:42:01.928Z,96988.06
2022-08-16T15:44:38.910Z,96988.06
2022-08-16T15:47:18.850Z,96994.41
2022-08-16T15:49:53.091Z,96990.84
2022-08-16T15:52:35.576Z,96991.56
2022-08-16T15:55:23.654Z,96992.28
2022-08-16T15:57:54.796Z,96990.09
2022-08-16T16:00:21.774Z,96990.06
2022-08-16T16:02:49.587Z,96992.81
2022-08-16T16:05:17.127Z,96990.69
2022-08-16T16:07:56.492Z,96985.03
2022-08-16T16:10:31.415Z,96987.88
2022-08-16T16:13:03.821Z,96980.88
2022-08-16T16:15:34.766Z,96987.16
2022-08-16T16:18:09.193Z,96985.03
2022-08-16T16:20:37.354Z,96989.94
2022-08-16T16:23:10.305Z,96991.28
2022-08-16T16:25:38.774Z,96987.03
2022-08-16T16:28:12.677Z,96980.69
2022-08-16T16:30:44.857Z,96981.31
2022-08-16T16:33:21.118Z,96979.13
2022-08-16T16:35:55.579Z,96971.41
2022-08-16T16:38:28.746Z,96977.69
2022-08-16T16:40:56.002Z,96975.56
2022-08-16T16:43:25.502Z,96980.38
2022-08-16T16:45:58.271Z,96980.28
2022-08-16T16:48:34.448Z,96986.53
2022-08-16T16:51:09.022Z,96986.50
2022-08-16T16:53:56.196Z,96988.59
2022-08-16T16:56:31.089Z,96989.91
2022-08-16T16:59:06.689Z,96990.59
2022-08-16T17:01:59.344Z,96991.91
2022-08-16T17:04:31.993Z,96985.53
2022-08-16T17:07:03.712Z,96982.69
2022-08-16T17:09:34.478Z,96991.72
2022-08-16T17:12:07.731Z,96989.59
2022-08-16T17:14:35.734Z,96985.34
2022-08-16T17:17:08.623Z,96987.41
2022-08-16T17:19:41.163Z,96986.59
2022-08-16T17:22:15.218Z,96989.34
2022-08-16T17:24:44.942Z,96987.25
2022-08-16T17:27:18.081Z,96987.22
2022-08-16T17:29:51.434Z,96982.97
2022-08-16T17:32:33.844Z,96986.38
2022-08-16T17:35:18.387Z,96998.22
2022-08-16T17:37:51.686Z,96998.13
2022-08-16T17:40:46.760Z,96991.06
2022-08-16T17:43:16.330Z,97006.34
2022-08-16T17:45:43.399Z,97004.94
2022-08-16T17:48:10.836Z,97006.31
2022-08-16T17:50:37.893Z,97005.59
2022-08-16T17:53:05.211Z,97005.56
2022-08-16T17:55:35.814Z,97008.25
2022-08-16T17:58:09.748Z,97013.06
2022-08-16T18:00:49.179Z,97011.56
2022-08-16T18:04:07.373Z,97011.50
2022-08-16T18:06:12.648Z,97007.22
2022-08-16T18:08:39.924Z,97010.63
2022-08-16T18:11:07.988Z,97014.72
2022-08-16T18:13:34.746Z,97018.09
2022-08-16T18:16:01.708Z,97021.47
2022-08-16T18:18:28.414Z,97024.84
2022-08-16T18:21:13.995Z,97030.34
2022-08-16T18:23:40.733Z,97030.88
2022-08-16T18:26:08.007Z,97034.22
2022-08-16T18:28:37.774Z,97039.63
2022-08-16T18:31:08.637Z,97041.59
2022-08-16T18:33:43.312Z,97042.16
2022-08-16T18:36:20.618Z,97053.25
2022-08-16T18:38:48.930Z,97055.22
2022-08-16T18:41:16.458Z,97061.41
2022-08-16T18:44:22.256Z,97068.28
2022-08-16T18:46:30.017Z,97066.09
2022-08-16T18:48:57.027Z,97062.50
2022-08-16T18:51:25.401Z,97074.19
2022-08-16T18:53:52.507Z,97067.81
2022-08-16T18:56:19.674Z,97067.59
2022-08-16T18:58:46.608Z,97080.69
2022-08-16T19:01:13.605Z,97088.28
2022-08-16T19:03:40.516Z,97087.53
2022-08-16T19:06:14.232Z,97090.19
2022-08-16T19:08:44.125Z,97087.94
2022-08-16T19:11:14.035Z,97094.84
2022-08-16T19:13:44.284Z,97091.97
2022-08-16T19:16:13.360Z,97100.94
2022-08-16T19:18:40.642Z,97095.25
2022-08-16T19:21:08.858Z,97099.97
2022-08-16T19:23:37.227Z,97104.00
2022-08-16T19:26:11.092Z,97107.47
2022-08-16T19:28:59.069Z,97101.91
2022-08-16T19:31:34.040Z,97106.72
2022-08-16T19:34:02.115Z,97107.28
2022-08-16T19:36:36.171Z,97118.94
2022-08-16T19:39:10.476Z,97114.56
2022-08-16T19:41:39.812Z,97108.06
2022-08-16T19:44:07.081Z,97111.34
2022-08-16T19:46:34.499Z,97114.69
2022-08-16T19:49:01.228Z,97112.53
2022-08-16T19:51:28.584Z,97113.16
2022-08-16T19:53:55.457Z,97115.13
2022-08-16T19:56:25.666Z,97117.75
2022-08-16T19:59:17.481Z,97117.00
2022-08-16T20:01:42.187Z,97114.69
2022-08-16T20:04:12.076Z,97116.72
2022-08-16T20:06:39.429Z,97120.03
2022-08-16T20:09:06.704Z,97115.78
2022-08-16T20:11:34.783Z,97115.56
2022-08-16T20:14:02.033Z,97118.22
2022-08-16T20:16:31.287Z,97123.88
2022-08-16T20:19:01.258Z,97118.16
2022-08-16T20:21:28.452Z,97130.44
2022-08-16T20:24:09.912Z,97126.69
2022-08-16T20:26:41.955Z,97128.59
2022-08-16T20:29:08.885Z,97133.31
2022-08-16T20:31:35.754Z,97133.88
2022-08-16T20:34:02.450Z,97125.41
2022-08-16T20:36:29.911Z,97127.53
2022-08-16T20:38:57.748Z,97124.72
2022-08-16T20:41:24.495Z,97133.09
2022-08-16T20:43:51.274Z,97131.56
2022-08-16T20:46:22.212Z,97126.34
2022-08-16T20:48:49.133Z,97128.84
2022-08-16T20:51:16.593Z,97130.81
2022-08-16T20:53:44.020Z,97134.81
2022-08-16T20:56:12.088Z,97128.59
2022-08-16T20:58:39.641Z,97129.13
2022-08-16T21:01:07.216Z,97135.34
2022-08-16T21:03:34.409Z,97129.78
2022-08-16T21:06:02.278Z,97133.25
2022-08-16T21:08:52.068Z,97133.81
2022-08-16T21:11:16.647Z,97130.13
2022-08-16T21:13:43.356Z,97135.44
2022-08-16T21:16:10.854Z,97137.19
2022-08-16T21:18:37.584Z,97135.56
2022-08-16T21:21:04.328Z,97140.47
2022-08-16T21:23:31.069Z,97136.91
2022-08-16T21:25:59.698Z,97134.63
2022-08-16T21:28:40.878Z,97136.53
2022-08-16T21:31:15.213Z,97131.53
2022-08-16T21:33:43.192Z,97140.59
2022-08-16T21:36:11.211Z,97139.94
2022-08-16T21:38:39.026Z,97141.88
2022-08-16T21:41:12.824Z,97140.38
2022-08-16T21:43:40.289Z,97136.66
2022-08-16T21:46:08.337Z,97138.66
2022-08-16T21:48:36.916Z,97139.41
2022-08-16T21:51:11.089Z,97133.06
2022-08-16T21:53:37.981Z,97132.91
2022-08-16T21:56:05.813Z,97135.03
2022-08-16T21:58:33.134Z,97137.06
2022-08-16T22:01:01.129Z,97134.91
2022-08-16T22:03:28.427Z,97138.19
2022-08-16T22:06:11.643Z,97142.94
2022-08-16T22:08:48.691Z,97147.69
2022-08-16T22:11:22.780Z,97147.63
2022-08-16T22:13:57.481Z,97146.19
2022-08-16T22:16:27.238Z,97159.44
2022-08-16T22:18:53.899Z,97152.97
2022-08-16T22:21:20.555Z,97147.97
2022-08-16T22:23:56.548Z,97145.69
2022-08-16T22:26:32.004Z,97147.06
2022-08-16T22:29:05.564Z,97158.25
2022-08-16T22:31:32.984Z,97146.91
2022-08-16T22:34:01.840Z,97155.22
2022-08-16T22:36:30.108Z,97153.81
2022-08-16T22:39:02.978Z,97155.50
2022-08-16T22:41:34.610Z,97159.00
2022-08-16T22:44:03.373Z,97156.06
2022-08-16T22:46:30.431Z,97158.72
2022-08-16T22:48:57.714Z,97158.53
2022-08-16T22:51:27.016Z,97153.19
2022-08-16T22:53:54.695Z,97156.44
2022-08-16T22:56:22.486Z,97154.31
2022-08-16T22:58:49.385Z,97156.38
2022-08-16T23:01:17.853Z,97156.38
2022-08-16T23:03:44.874Z,97152.25
2022-08-16T23:06:12.517Z,97158.50
2022-08-16T23:08:41.495Z,97156.59
2022-08-16T23:11:11.396Z,97156.44
2022-08-16T23:13:50.718Z,97152.81
2022-08-16T23:16:21.899Z,97153.91
2022-08-16T23:18:49.455Z,97147.66
2022-08-16T23:21:18.025Z,97151.38
2022-08-16T23:23:46.667Z,97142.00
2022-08-16T23:26:46.783Z,97147.34
2022-08-16T23:29:04.367Z,97142.25
2022-08-16T23:31:32.675Z,97140.84
2022-08-16T23:33:59.926Z,97140.13
2022-08-16T23:36:26.639Z,97141.94
2022-08-16T23:38:53.358Z,97138.31
2022-08-16T23:41:20.334Z,97137.75
2022-08-16T23:43:47.266Z,97131.41
2022-08-16T23:46:17.277Z,97132.13
2022-08-16T23:49:56.077Z,97130.84
2022-08-16T23:51:32.356Z,97123.72
2022-08-16T23:54:00.008Z,97118.34
2022-08-16T23:56:26.711Z,97124.44
2022-08-16T23:59:02.213Z,97122.84
